Tartagal, Argentina
Current Conditions -  °F | °C
As of 10:00 AM on Thursday 30 Oct 2014 (Local Time) from SARE Reporting Station
Thunderstorm Thunderstorm  
Wind Chill: 68°   Ceiling: 1800
Heat Index: 68°   Visibility: 4mi
Dew Point: 68°   Wind: 14mph
Humidity: 100%   Direction: 90°E
Pressure: 29.8"   Gusts: NA
Location:  28.67°S, 59.87°W
Report Text: SARE 301300Z 09012KT 6000 TSRA FEW005 BKN018 OVC040 FEW056CB 20/20 Q1009
Loading
Personal Weather Stations






























Interactive Weather Map
Tropical Storm Tracking
New forecast layout! Learn more

10-Day Weather Forecast

Advertisements
Track Severe Weather on mobile